createdAt,value
2018-04-11T00:00:35.950Z,0.00
2018-04-11T00:01:35.938Z,0.00
2018-04-11T00:02:35.929Z,0.00
2018-04-11T00:03:36.547Z,0.00
2018-04-11T00:04:35.927Z,0.00
2018-04-11T00:05:35.951Z,0.00
2018-04-11T00:06:35.957Z,0.00
2018-04-11T00:07:35.951Z,0.00
2018-04-11T00:09:02.047Z,0.00
2018-04-11T00:09:35.939Z,0.00
2018-04-11T00:10:35.933Z,0.00
2018-04-11T00:11:35.939Z,0.00
2018-04-11T00:12:35.945Z,0.00
2018-04-11T00:15:29.699Z,0.00
2018-04-11T00:16:07.639Z,0.00
2018-04-11T00:17:07.633Z,0.00
2018-04-11T00:18:28.687Z,0.00
2018-04-11T00:19:07.629Z,0.00
2018-04-11T00:20:07.633Z,0.00
2018-04-11T00:21:07.638Z,0.00
2018-04-11T00:22:07.642Z,0.00
2018-04-11T00:23:07.781Z,0.00
2018-04-11T00:24:07.646Z,0.00
2018-04-11T00:25:07.643Z,0.00
2018-04-11T00:26:07.644Z,0.00
2018-04-11T00:27:07.647Z,0.00
2018-04-11T00:28:07.632Z,0.00
2018-04-11T00:40:15.130Z,0.00
2018-04-11T00:40:49.063Z,0.00
2018-04-11T00:41:49.066Z,0.00
2018-04-11T00:42:50.179Z,0.00
2018-04-11T00:43:49.871Z,0.00
2018-04-11T00:44:49.063Z,0.00
2018-04-11T00:45:49.071Z,0.00
2018-04-11T00:46:49.063Z,0.00
2018-04-11T00:48:20.743Z,0.00
2018-04-11T00:48:49.072Z,0.00
2018-04-11T00:49:49.071Z,0.00
2018-04-11T00:50:49.072Z,0.00
2018-04-11T00:51:49.079Z,0.00
2018-04-11T00:52:49.120Z,0.00
2018-04-11T00:54:03.218Z,0.00
2018-04-11T00:54:49.071Z,0.00
2018-04-11T00:55:49.061Z,0.00
2018-04-11T00:56:49.071Z,0.00
2018-04-11T00:57:49.057Z,0.00
2018-04-11T00:58:49.184Z,0.00
2018-04-11T00:59:49.844Z,0.00
2018-04-11T01:00:49.056Z,0.00
2018-04-11T01:01:49.063Z,0.00
2018-04-11T01:02:49.751Z,0.00
2018-04-11T01:03:49.780Z,0.00
2018-04-11T01:04:49.065Z,0.00
2018-04-11T01:05:49.062Z,0.00
2018-04-11T01:06:49.059Z,0.00
2018-04-11T01:07:49.047Z,0.00
2018-04-11T01:09:24.252Z,0.00
2018-04-11T01:09:49.055Z,0.00
2018-04-11T01:10:49.060Z,0.00
2018-04-11T01:11:49.076Z,0.00
2018-04-11T01:12:49.054Z,0.00
2018-04-11T01:13:54.583Z,0.00
2018-04-11T01:14:49.044Z,0.00
2018-04-11T01:15:49.051Z,0.00
2018-04-11T01:16:49.044Z,0.00
2018-04-11T01:17:49.053Z,0.00
2018-04-11T01:19:10.958Z,0.00
2018-04-11T01:19:49.788Z,0.00
2018-04-11T01:20:49.048Z,0.00
2018-04-11T01:21:49.050Z,0.00
2018-04-11T01:22:49.037Z,0.00
2018-04-11T01:25:23.862Z,0.00
2018-04-11T01:26:20.710Z,0.00
2018-04-11T01:27:20.720Z,0.00
2018-04-11T01:28:20.871Z,0.00
2018-04-11T01:29:20.716Z,0.00
2018-04-11T01:30:20.708Z,0.00
2018-04-11T01:31:20.704Z,0.00
2018-04-11T01:32:20.712Z,0.00
2018-04-11T01:33:41.841Z,0.00
2018-04-11T01:34:20.704Z,0.00
2018-04-11T01:35:20.700Z,0.00
2018-04-11T01:36:20.699Z,0.00
2018-04-11T01:37:20.709Z,0.00
2018-04-11T01:38:22.526Z,0.00
2018-04-11T01:39:20.702Z,0.00
2018-04-11T01:40:20.697Z,0.00
2018-04-11T01:41:20.694Z,0.00
2018-04-11T01:42:20.696Z,0.00
2018-04-11T01:43:31.507Z,0.00
2018-04-11T01:44:20.701Z,0.00
2018-04-11T01:45:20.772Z,0.00
2018-04-11T01:46:20.695Z,0.00
2018-04-11T01:47:20.856Z,0.00
2018-04-11T01:48:20.685Z,0.00
2018-04-11T01:49:20.689Z,0.00
2018-04-11T01:50:20.692Z,0.00
2018-04-11T01:51:20.689Z,0.00
2018-04-11T01:52:43.396Z,0.00
2018-04-11T01:53:20.694Z,0.00
2018-04-11T01:54:20.697Z,0.00
2018-04-11T01:55:20.695Z,0.00
2018-04-11T01:56:20.687Z,0.00
2018-04-11T01:57:21.370Z,0.00
2018-04-11T01:58:20.702Z,0.00
2018-04-11T01:59:20.681Z,0.00
2018-04-11T02:00:20.688Z,0.00
2018-04-11T02:01:20.681Z,0.00
2018-04-11T02:02:47.465Z,0.00
2018-04-11T02:03:20.686Z,0.00
2018-04-11T02:04:20.942Z,0.00
2018-04-11T02:05:20.679Z,0.00
2018-04-11T02:06:20.674Z,0.00
2018-04-11T02:07:31.462Z,0.00
2018-04-11T02:08:20.685Z,0.00
2018-04-11T02:09:20.669Z,0.00
2018-04-11T02:10:20.677Z,0.00
2018-04-11T02:11:20.683Z,0.00
2018-04-11T02:12:24.899Z,0.00
2018-04-11T02:13:20.926Z,0.00
2018-04-11T02:14:20.669Z,0.00
2018-04-11T02:15:20.664Z,0.00
2018-04-11T02:25:30.707Z,0.00
2018-04-11T02:26:32.342Z,0.00
2018-04-11T02:27:30.554Z,0.00
2018-04-11T02:28:30.549Z,0.00
2018-04-11T02:29:30.552Z,0.00
2018-04-11T02:30:30.563Z,0.00
2018-04-11T02:31:52.829Z,0.00
2018-04-11T02:32:30.547Z,0.00
2018-04-11T02:33:30.539Z,0.00
2018-04-11T02:34:30.543Z,0.00
2018-04-11T02:35:30.945Z,0.00
2018-04-11T02:39:38.948Z,0.00
2018-04-11T02:40:33.830Z,0.00
2018-04-11T02:41:33.884Z,0.00
2018-04-11T02:42:33.825Z,0.00
2018-04-11T02:43:33.833Z,0.00
2018-04-11T02:44:33.832Z,0.00
2018-04-11T02:45:33.825Z,0.00
2018-04-11T02:48:05.593Z,0.00
2018-04-11T02:49:05.557Z,0.00
2018-04-11T02:50:05.539Z,0.00
2018-04-11T02:51:05.595Z,0.00
2018-04-11T02:52:05.547Z,0.00
2018-04-11T02:53:05.548Z,0.00
2018-04-11T02:54:05.535Z,0.00
2018-04-11T02:55:05.531Z,0.00
2018-04-11T02:56:10.607Z,0.00
2018-04-11T02:57:05.530Z,0.00
2018-04-11T02:58:05.530Z,0.00
2018-04-11T02:59:05.531Z,0.00
2018-04-11T03:00:05.527Z,0.00
2018-04-11T03:01:07.094Z,0.00
2018-04-11T03:02:05.532Z,0.00
2018-04-11T03:03:05.524Z,0.00
2018-04-11T03:04:05.523Z,0.00
2018-04-11T03:05:05.519Z,0.00
2018-04-11T03:06:10.591Z,0.00
2018-04-11T03:07:05.524Z,0.00
2018-04-11T03:08:05.701Z,0.00
2018-04-11T03:09:05.525Z,0.00
2018-04-11T03:10:05.521Z,0.00
2018-04-11T03:11:05.602Z,0.00
2018-04-11T03:12:05.754Z,0.00
2018-04-11T03:13:05.520Z,0.00
2018-04-11T03:14:05.521Z,0.00
2018-04-11T03:15:06.046Z,0.00
2018-04-11T03:16:10.597Z,0.00
2018-04-11T03:17:05.510Z,0.00
2018-04-11T03:18:05.512Z,0.00
2018-04-11T03:19:05.513Z,0.00
2018-04-11T03:20:05.508Z,0.00
2018-04-11T03:21:26.570Z,0.00
2018-04-11T03:22:05.515Z,0.00
2018-04-11T03:23:05.507Z,0.00
2018-04-11T03:24:05.505Z,0.00
2018-04-11T03:25:05.509Z,0.00
2018-04-11T03:26:13.103Z,0.00
2018-04-11T03:27:05.508Z,0.00
2018-04-11T03:28:05.527Z,0.00
2018-04-11T03:29:05.501Z,0.00
2018-04-11T03:31:39.183Z,0.00
2018-04-11T03:32:37.527Z,0.00
2018-04-11T03:33:37.529Z,0.00
2018-04-11T03:34:37.528Z,0.00
2018-04-11T03:36:06.229Z,0.00
2018-04-11T03:36:37.521Z,0.00
2018-04-11T03:37:37.530Z,0.00
2018-04-11T03:38:37.519Z,0.00
2018-04-11T03:39:37.512Z,0.00
2018-04-11T03:48:36.908Z,0.00
2018-04-11T03:49:15.792Z,0.00
2018-04-11T03:50:15.788Z,0.00
2018-04-11T03:51:20.912Z,0.00
2018-04-11T03:52:15.794Z,0.00
2018-04-11T03:53:15.805Z,4.00
2018-04-11T03:54:15.790Z,4.00
2018-04-11T03:55:15.784Z,0.00
2018-04-11T03:56:20.914Z,0.00
2018-04-11T03:57:15.778Z,4.00
2018-04-11T03:58:15.786Z,4.00
2018-04-11T03:59:15.781Z,4.00
2018-04-11T04:00:16.646Z,8.00
2018-04-11T04:01:37.413Z,4.00
2018-04-11T04:02:15.772Z,4.00
2018-04-11T04:03:15.779Z,12.00
2018-04-11T04:04:15.770Z,12.00
2018-04-11T04:05:15.771Z,12.00
2018-04-11T04:15:39.721Z,60.00
2018-04-11T04:16:25.607Z,64.00
2018-04-11T04:18:57.365Z,88.00
2018-04-11T04:19:57.279Z,96.00
2018-04-11T04:20:57.269Z,108.00
2018-04-11T04:23:30.529Z,136.00
2018-04-11T04:24:28.946Z,148.00
2018-04-11T04:25:28.939Z,164.00
2018-04-11T04:26:28.945Z,180.00
2018-04-11T04:27:29.529Z,204.00
2018-04-11T04:28:28.937Z,236.00
2018-04-11T04:29:28.933Z,276.00
2018-04-11T04:30:28.935Z,316.00
2018-04-11T04:31:28.940Z,348.00
2018-04-11T04:33:08.020Z,388.00
2018-04-11T04:33:28.931Z,416.00
2018-04-11T04:34:28.934Z,440.00
2018-04-11T04:35:28.932Z,464.00
2018-04-11T04:36:29.365Z,492.00
2018-04-11T04:39:14.702Z,592.00
2018-04-11T04:40:00.589Z,644.00
2018-04-11T04:41:00.589Z,692.00
2018-04-11T04:42:00.583Z,744.00
2018-04-11T04:43:08.179Z,796.00
2018-04-11T04:44:00.582Z,848.00
2018-04-11T04:45:00.589Z,904.00
2018-04-11T04:46:00.580Z,952.00
2018-04-11T04:47:00.585Z,996.00
2018-04-11T04:48:00.646Z,1048.00
2018-04-11T04:49:00.581Z,1116.00
2018-04-11T04:50:00.586Z,1208.00
2018-04-11T04:51:00.577Z,1328.00
2018-04-11T04:52:00.579Z,1472.00
2018-04-11T04:53:05.689Z,1664.00
2018-04-11T04:54:00.575Z,1896.00
2018-04-11T04:55:00.577Z,2112.00
2018-04-11T04:56:00.581Z,2256.00
2018-04-11T04:57:00.578Z,2400.00
2018-04-11T04:58:03.192Z,2576.00
2018-04-11T04:59:01.139Z,2756.00
2018-04-11T05:00:00.577Z,2924.00
2018-04-11T05:01:00.727Z,3072.00
2018-04-11T05:02:00.579Z,3196.00
2018-04-11T05:04:43.809Z,3236.00
2018-04-11T05:05:32.609Z,3296.00
2018-04-11T05:06:32.608Z,3436.00
2018-04-11T05:07:32.634Z,3584.00
2018-04-11T05:13:13.827Z,2912.00
2018-04-11T05:14:07.752Z,2892.00
2018-04-11T05:15:07.707Z,2932.00
2018-04-11T05:16:07.707Z,2984.00
2018-04-11T05:17:07.711Z,3008.00
2018-04-11T05:18:07.718Z,3004.00
2018-04-11T05:20:40.973Z,2968.00
2018-04-11T05:21:39.404Z,2932.00
2018-04-11T05:22:39.410Z,2912.00
2018-04-11T05:23:39.468Z,2916.00
2018-04-11T05:24:39.406Z,2928.00
2018-04-11T05:25:39.404Z,2928.00
2018-04-11T05:26:39.405Z,2896.00
2018-04-11T05:27:39.406Z,2812.00
2018-04-11T05:30:37.169Z,2580.00
2018-04-11T05:31:11.104Z,2564.00
2018-04-11T05:32:11.117Z,2576.00
2018-04-11T05:33:46.169Z,2568.00
2018-04-11T05:34:11.112Z,2508.00
2018-04-11T05:35:11.116Z,2408.00
2018-04-11T05:36:11.113Z,2292.00
2018-04-11T05:37:11.113Z,2200.00
2018-04-11T05:38:11.152Z,2156.00
2018-04-11T05:39:11.121Z,2176.00
2018-04-11T05:40:11.119Z,2284.00
2018-04-11T05:41:11.113Z,2472.00
2018-04-11T05:42:11.114Z,2692.00
2018-04-11T05:43:11.164Z,2940.00
2018-04-11T05:44:11.117Z,3208.00
2018-04-11T05:45:11.115Z,3460.00
2018-04-11T05:46:11.120Z,3684.00
2018-04-11T05:47:11.126Z,3880.00
2018-04-11T05:48:21.673Z,4032.00
2018-04-11T05:49:11.113Z,4104.00
2018-04-11T05:50:16.277Z,4100.00
2018-04-11T05:51:11.112Z,4100.00
2018-04-11T05:52:11.121Z,4156.00
2018-04-11T05:53:11.121Z,4240.00
2018-04-11T05:54:11.177Z,4344.00
2018-04-11T05:55:11.121Z,4496.00
2018-04-11T05:56:11.125Z,4588.00
2018-04-11T05:57:11.122Z,4536.00
2018-04-11T05:58:11.121Z,4316.00
2018-04-11T05:59:13.174Z,4008.00
2018-04-11T06:00:11.126Z,3756.00
2018-04-11T06:01:11.124Z,3596.00
2018-04-11T06:02:11.129Z,3512.00
2018-04-11T06:03:11.127Z,3476.00
2018-04-11T06:04:11.183Z,3452.00
2018-04-11T06:05:11.140Z,3416.00
2018-04-11T06:06:11.132Z,3356.00
2018-04-11T06:07:11.134Z,3248.00
2018-04-11T06:08:11.133Z,3104.00
2018-04-11T06:09:11.133Z,2968.00
2018-04-11T06:10:11.177Z,2852.00
2018-04-11T06:11:11.174Z,2756.00
2018-04-11T06:12:11.131Z,2732.00
2018-04-11T06:13:11.129Z,2816.00
2018-04-11T06:14:22.173Z,2964.00
2018-04-11T06:15:11.132Z,3132.00
2018-04-11T06:16:13.225Z,3256.00
2018-04-11T06:17:11.134Z,3432.00
2018-04-11T06:18:11.134Z,3644.00
2018-04-11T06:19:12.165Z,3900.00
2018-04-11T06:20:11.150Z,4176.00
2018-04-11T06:21:11.143Z,4412.00
2018-04-11T06:22:11.138Z,4536.00
2018-04-11T06:23:11.735Z,4492.00
2018-04-11T06:24:11.190Z,4316.00
2018-04-11T06:25:11.144Z,4136.00
2018-04-11T06:26:11.138Z,3984.00
2018-04-11T06:27:11.142Z,3856.00
2018-04-11T06:28:11.147Z,3696.00
2018-04-11T06:29:19.847Z,3540.00
2018-04-11T06:30:11.142Z,3452.00
2018-04-11T06:31:11.139Z,3368.00
2018-04-11T06:32:11.143Z,3276.00
2018-04-11T06:33:11.143Z,3128.00
2018-04-11T06:38:47.629Z,2340.00
2018-04-11T06:39:51.171Z,2260.00
2018-04-11T06:40:46.063Z,2244.00
2018-04-11T06:41:46.064Z,2256.00
2018-04-11T06:42:46.060Z,2300.00
2018-04-11T06:43:46.055Z,2388.00
2018-04-11T06:46:25.808Z,2444.00
2018-04-11T06:47:17.661Z,2404.00
2018-04-11T06:48:17.650Z,2328.00
2018-04-11T06:49:17.644Z,2204.00
2018-04-11T06:50:31.813Z,2052.00
2018-04-11T06:51:18.209Z,1920.00
2018-04-11T06:52:17.647Z,1840.00
2018-04-11T06:53:17.641Z,1784.00
2018-04-11T06:54:17.644Z,1756.00
2018-04-11T06:55:17.650Z,1748.00
2018-04-11T06:56:56.304Z,1748.00
2018-04-11T06:57:17.645Z,1728.00
2018-04-11T06:58:17.682Z,1704.00
2018-04-11T06:59:17.648Z,1708.00
2018-04-11T07:00:17.813Z,1804.00
2018-04-11T09:20:20.527Z,45728.00
2018-04-11T09:21:19.912Z,47200.00
2018-04-11T09:22:19.915Z,46496.00
2018-04-11T09:23:19.912Z,58432.00
2018-04-11T09:24:19.915Z,63328.00
2018-04-11T09:25:19.968Z,62816.00
2018-04-11T09:26:19.919Z,61472.00
2018-04-11T09:27:20.183Z,62240.00
2018-04-11T09:28:20.831Z,62080.00
2018-04-11T09:29:19.928Z,55904.00
2018-04-11T09:30:20.021Z,53408.00
2018-04-11T09:31:20.212Z,51712.00
2018-04-11T09:32:19.929Z,46272.00
2018-04-11T09:33:19.941Z,54528.00
2018-04-11T09:34:19.932Z,52032.00
2018-04-11T09:36:54.702Z,55456.00
2018-04-11T09:37:51.569Z,61280.00
2018-04-11T09:38:51.585Z,66592.00
2018-04-11T09:56:46.582Z,49280.00
2018-04-11T09:57:42.388Z,52704.00
2018-04-11T09:58:42.382Z,59520.00
2018-04-11T10:10:46.520Z,61472.00
2018-04-11T10:11:25.400Z,83456.00
2018-04-11T10:12:25.412Z,96832.00
2018-04-11T10:13:25.420Z,106944.00
2018-04-11T10:14:25.425Z,110336.00
2018-04-11T10:15:28.513Z,59296.00
2018-04-11T10:16:25.453Z,112704.00
2018-04-11T10:17:25.468Z,110208.00
2018-04-11T10:18:25.477Z,111904.00
2018-04-11T10:19:25.920Z,62208.00
2018-04-11T10:20:25.771Z,88608.00
2018-04-11T10:21:25.507Z,108960.00
2018-04-11T10:22:25.527Z,92512.00
2018-04-11T10:23:25.537Z,96128.00
2018-04-11T10:24:25.555Z,83040.00
2018-04-11T10:33:28.060Z,120640.00
2018-04-11T10:34:03.959Z,61472.00
2018-04-11T10:35:03.970Z,54528.00
2018-04-11T10:41:13.747Z,46016.00
2018-04-11T10:41:39.232Z,39680.00
2018-04-11T10:42:40.035Z,32800.00
2018-04-11T10:43:39.257Z,29600.00
2018-04-11T10:44:39.841Z,29376.00
2018-04-11T10:46:02.236Z,30112.00
2018-04-11T10:46:39.287Z,29152.00
2018-04-11T10:47:39.294Z,26944.00
2018-04-11T10:48:39.497Z,25216.00
2018-04-11T10:49:39.322Z,24288.00
2018-04-11T11:52:24.960Z,27616.00
2018-04-11T11:52:49.656Z,27424.00
2018-04-11T11:53:49.782Z,27520.00
2018-04-11T11:54:49.695Z,28096.00
2018-04-11T11:55:49.664Z,30240.00
2018-04-11T11:56:49.683Z,33536.00
2018-04-11T11:57:51.386Z,37952.00
2018-04-11T11:58:49.679Z,41504.00
2018-04-11T11:59:50.291Z,41472.00
2018-04-11T12:00:49.695Z,40288.00
2018-04-11T12:17:10.557Z,11480.00
2018-04-11T12:18:07.453Z,12080.00
2018-04-11T12:19:07.462Z,13084.00
2018-04-11T12:20:07.464Z,15684.00
2018-04-11T12:21:07.461Z,18688.00
2018-04-11T12:22:07.470Z,20736.00
2018-04-11T12:23:36.981Z,20960.00
2018-04-11T12:24:07.483Z,20288.00
2018-04-11T12:25:07.492Z,19008.00
2018-04-11T12:26:07.494Z,18528.00
2018-04-11T12:27:07.506Z,18912.00
2018-04-11T12:34:52.191Z,27392.00
2018-04-11T12:35:14.120Z,27136.00
2018-04-11T12:36:14.132Z,26816.00
2018-04-11T12:37:14.131Z,26784.00
2018-04-11T12:38:14.134Z,26432.00
2018-04-11T12:39:35.731Z,23872.00
2018-04-11T12:40:14.152Z,19776.00
2018-04-11T12:41:14.148Z,20192.00
2018-04-11T12:42:14.152Z,25472.00
2018-04-11T12:44:47.421Z,32992.00
2018-04-11T12:45:45.837Z,38784.00
2018-04-11T12:46:45.849Z,44704.00
2018-04-11T12:47:45.853Z,48448.00
2018-04-11T12:50:17.632Z,62464.00
2018-04-11T12:51:18.248Z,66944.00
2018-04-11T12:52:17.513Z,66048.00
2018-04-11T12:53:41.612Z,122880.00
2018-04-11T12:54:17.528Z,120128.00
2018-04-11T12:55:17.590Z,114176.00
2018-04-11T12:56:17.542Z,111616.00
2018-04-11T12:57:17.546Z,84128.00
2018-04-11T12:59:49.217Z,55168.00
2018-04-11T13:00:49.223Z,89216.00
2018-04-11T13:01:49.226Z,84320.00
2018-04-11T13:03:07.318Z,74432.00
2018-04-11T13:03:49.246Z,75392.00
2018-04-11T13:04:49.263Z,52224.00
2018-04-11T13:05:49.275Z,39712.00
2018-04-11T13:06:49.286Z,40160.00
2018-04-11T13:08:03.827Z,54112.00
2018-04-11T13:08:49.307Z,48224.00
2018-04-11T13:09:49.314Z,41888.00
2018-04-11T13:10:49.435Z,38208.00
2018-04-11T13:16:27.433Z,28544.00
2018-04-11T13:17:27.442Z,31936.00
2018-04-11T13:18:29.740Z,37792.00
2018-04-11T13:19:27.448Z,42528.00
2018-04-11T13:20:27.444Z,47648.00
2018-04-11T13:21:27.464Z,73088.00
2018-04-11T13:22:27.533Z,56064.00
2018-04-11T13:23:27.489Z,53280.00
2018-04-11T13:24:27.485Z,74048.00
2018-04-11T13:25:27.493Z,85568.00
2018-04-11T13:26:27.496Z,74816.00
2018-04-11T13:27:27.560Z,55328.00
2018-04-11T13:28:27.524Z,59232.00
2018-04-11T13:29:27.527Z,87072.00
2018-04-11T13:30:27.560Z,40768.00
2018-04-11T13:31:27.557Z,36288.00
2018-04-11T13:32:27.619Z,38560.00
2018-04-11T13:33:27.566Z,63136.00
2018-04-11T13:34:27.573Z,86720.00
2018-04-11T13:35:27.598Z,40768.00
2018-04-11T13:36:27.771Z,43296.00
2018-04-11T13:37:29.515Z,62752.00
2018-04-11T13:38:27.613Z,35488.00
2018-04-11T13:39:27.630Z,36192.00
2018-04-11T13:40:27.634Z,36224.00
2018-04-11T13:41:27.644Z,51392.00
2018-04-11T13:42:27.698Z,67136.00
2018-04-11T13:43:27.671Z,43168.00
2018-04-11T13:44:27.679Z,30624.00
2018-04-11T13:45:27.688Z,28320.00
2018-04-11T13:46:27.690Z,29184.00
2018-04-11T13:47:46.023Z,31296.00
2018-04-11T13:48:27.713Z,33792.00
2018-04-11T13:49:27.719Z,33408.00
2018-04-11T13:50:27.728Z,30432.00
2018-04-11T13:51:27.752Z,32416.00
2018-04-11T13:52:49.015Z,31072.00
2018-04-11T13:53:27.757Z,30944.00
2018-04-11T13:54:27.771Z,38400.00
2018-04-11T13:55:27.763Z,36064.00
2018-04-11T13:56:27.787Z,81376.00
2018-04-11T13:57:27.787Z,83104.00
2018-04-11T13:58:42.037Z,81792.00
2018-04-11T13:59:27.804Z,79840.00
2018-04-11T14:00:27.809Z,78176.00
2018-04-11T14:01:27.824Z,76192.00
2018-04-11T14:03:59.597Z,66592.00
2018-04-11T14:04:59.505Z,21760.00
2018-04-11T14:05:59.537Z,36032.00
2018-04-11T14:06:59.527Z,27424.00
2018-04-11T14:08:04.593Z,23552.00
2018-04-11T14:08:59.538Z,23840.00
2018-04-11T14:09:59.547Z,21056.00
2018-04-11T14:10:59.558Z,18880.00
2018-04-11T14:11:59.566Z,17720.00
2018-04-11T14:13:18.097Z,17744.00
2018-04-11T14:13:59.583Z,18528.00
2018-04-11T14:14:59.595Z,20576.00
2018-04-11T14:15:59.594Z,18688.00
2018-04-11T14:16:59.606Z,17728.00
2018-04-11T14:18:00.330Z,17004.00
2018-04-11T14:18:59.615Z,16320.00
2018-04-11T14:19:59.626Z,16092.00
2018-04-11T14:20:59.632Z,16124.00
2018-04-11T14:21:59.638Z,16272.00
2018-04-11T14:22:59.655Z,16236.00
2018-04-11T14:24:10.854Z,16720.00
2018-04-11T14:24:59.660Z,18080.00
2018-04-11T14:25:59.666Z,19520.00
2018-04-11T14:26:59.671Z,20864.00
2018-04-11T14:27:59.674Z,22496.00
2018-04-11T14:28:59.736Z,29600.00
2018-04-11T14:30:00.536Z,30080.00
2018-04-11T14:30:59.694Z,28064.00
2018-04-11T14:31:59.703Z,29152.00
2018-04-11T14:33:00.552Z,26048.00
2018-04-11T14:34:00.127Z,26016.00
2018-04-11T14:34:59.714Z,27584.00
2018-04-11T14:35:59.736Z,26176.00
2018-04-11T14:36:59.728Z,23264.00
2018-04-11T14:37:59.731Z,22048.00
2018-04-11T14:39:10.650Z,21152.00
2018-04-11T14:39:59.737Z,20352.00
2018-04-11T14:40:59.745Z,19488.00
2018-04-11T14:41:59.754Z,18752.00
2018-04-11T14:42:59.762Z,18272.00
2018-04-11T14:43:59.818Z,17888.00
2018-04-11T14:44:59.774Z,17348.00
2018-04-11T14:45:59.778Z,16964.00
2018-04-11T14:46:59.779Z,16656.00
2018-04-11T14:47:59.781Z,16388.00
2018-04-11T14:49:01.115Z,16100.00
2018-04-11T14:49:59.790Z,15700.00
2018-04-11T14:50:59.797Z,15240.00
2018-04-11T14:51:59.807Z,14728.00
2018-04-11T14:52:59.809Z,14308.00
2018-04-11T14:53:59.859Z,13968.00
2018-04-11T14:54:59.817Z,13680.00
2018-04-11T14:55:59.818Z,13568.00
2018-04-11T14:56:59.823Z,13472.00
2018-04-11T14:57:59.831Z,13320.00
2018-04-11T14:59:01.611Z,13232.00
2018-04-11T14:59:59.843Z,13372.00
2018-04-11T15:00:59.853Z,13852.00
2018-04-11T15:01:59.845Z,14704.00
2018-04-11T15:02:59.849Z,15712.00
2018-04-11T15:04:03.107Z,16664.00
2018-04-11T15:05:00.547Z,17632.00
2018-04-11T15:06:00.556Z,18240.00
2018-04-11T15:06:59.872Z,19168.00
2018-04-11T15:07:59.873Z,19488.00
2018-04-11T15:08:59.876Z,18816.00
2018-04-11T15:10:00.096Z,18688.00
2018-04-11T15:10:59.888Z,18432.00
2018-04-11T15:11:59.894Z,17984.00
2018-04-11T15:12:59.897Z,17108.00
2018-04-11T15:14:00.555Z,16324.00
2018-04-11T15:14:59.988Z,15660.00
2018-04-11T15:15:59.901Z,15140.00
2018-04-11T15:16:59.925Z,14752.00
2018-04-11T15:17:59.913Z,14496.00
2018-04-11T15:19:00.749Z,14336.00
2018-04-11T15:20:07.601Z,14276.00
2018-04-11T15:20:59.928Z,14260.00
2018-04-11T15:21:59.930Z,14228.00
2018-04-11T15:22:59.934Z,14184.00
2018-04-11T15:23:59.938Z,14172.00
2018-04-11T15:24:59.992Z,14112.00
2018-04-11T15:25:59.938Z,14000.00
2018-04-11T15:26:59.949Z,13880.00
2018-04-11T15:27:59.948Z,13860.00
2018-04-11T15:28:59.955Z,14116.00
2018-04-11T15:30:00.004Z,14872.00
2018-04-11T15:30:59.968Z,16720.00
2018-04-11T15:31:59.977Z,19552.00
2018-04-11T15:32:59.967Z,24896.00
2018-04-11T15:33:59.974Z,28736.00
2018-04-11T15:35:01.197Z,26560.00
2018-04-11T15:35:59.978Z,24448.00
2018-04-11T15:36:59.983Z,23424.00
2018-04-11T15:37:59.988Z,25248.00
2018-04-11T15:38:59.998Z,27296.00
2018-04-11T15:40:00.001Z,29248.00
2018-04-11T15:41:02.344Z,32992.00
2018-04-11T15:42:00.004Z,29568.00
2018-04-11T15:43:00.011Z,28096.00
2018-04-11T15:44:00.020Z,27584.00
2018-04-11T15:45:00.017Z,27008.00
2018-04-11T15:46:00.069Z,26048.00
2018-04-11T15:47:00.025Z,22176.00
2018-04-11T15:48:00.029Z,20032.00
2018-04-11T15:49:00.033Z,20896.00
2018-04-11T15:50:00.045Z,17728.00
2018-04-11T15:51:10.610Z,14216.00
2018-04-11T15:52:00.046Z,13284.00
2018-04-11T15:53:00.054Z,13924.00
2018-04-11T15:54:00.059Z,12888.00
2018-04-11T15:55:00.060Z,12464.00
2018-04-11T15:56:01.610Z,13560.00
2018-04-11T15:57:00.065Z,15680.00
2018-04-11T15:58:00.080Z,14768.00
2018-04-11T15:59:00.208Z,14968.00
2018-04-11T16:00:00.079Z,14952.00
2018-04-11T16:01:00.128Z,15052.00
2018-04-11T16:02:00.095Z,15012.00
2018-04-11T16:03:00.095Z,16280.00
2018-04-11T16:04:00.100Z,16836.00
2018-04-11T16:05:00.104Z,17664.00
2018-04-11T16:06:00.637Z,16372.00
2018-04-11T16:07:00.127Z,16768.00
2018-04-11T16:08:00.116Z,16664.00
2018-04-11T16:09:00.139Z,17696.00
2018-04-11T16:10:00.124Z,18432.00
2018-04-11T16:11:00.179Z,18272.00
2018-04-11T16:12:00.137Z,17600.00
2018-04-11T16:13:00.140Z,17760.00
2018-04-11T16:14:00.299Z,17312.00
2018-04-11T16:15:00.152Z,16960.00
2018-04-11T16:16:05.690Z,16992.00
2018-04-11T16:17:00.154Z,17056.00
2018-04-11T16:18:00.161Z,16928.00
2018-04-11T16:19:00.165Z,17024.00
2018-04-11T16:20:00.189Z,16672.00
2018-04-11T16:21:00.641Z,15712.00
2018-04-11T16:22:00.173Z,14552.00
2018-04-11T16:23:00.178Z,16320.00
2018-04-11T16:24:00.184Z,16992.00
2018-04-11T16:25:00.194Z,16960.00
2018-04-11T16:26:00.191Z,17504.00
2018-04-11T16:27:00.249Z,18272.00
2018-04-11T16:28:00.205Z,19808.00
2018-04-11T16:29:00.214Z,19936.00
2018-04-11T16:30:00.218Z,18720.00
2018-04-11T16:31:05.639Z,16800.00
2018-04-11T16:32:00.225Z,15712.00
2018-04-11T16:33:00.234Z,15360.00
2018-04-11T16:34:00.228Z,14672.00
2018-04-11T16:35:00.241Z,14432.00
2018-04-11T16:36:00.530Z,13780.00
2018-04-11T16:37:00.248Z,13044.00
2018-04-11T16:38:00.253Z,12280.00
2018-04-11T16:39:00.630Z,11648.00
2018-04-11T16:40:00.262Z,11320.00
2018-04-11T16:41:00.272Z,10920.00
2018-04-11T16:42:00.327Z,9568.00
2018-04-11T16:43:00.283Z,9748.00
2018-04-11T16:44:00.297Z,10212.00
2018-04-11T16:45:00.286Z,10812.00
2018-04-11T16:46:00.285Z,11552.00
2018-04-11T16:47:11.126Z,12316.00
2018-04-11T16:48:00.295Z,12592.00
2018-04-11T16:49:00.311Z,12384.00
2018-04-11T16:50:00.315Z,11904.00
2018-04-11T16:51:00.364Z,11452.00
2018-04-11T16:52:00.323Z,10992.00
2018-04-11T16:53:00.324Z,10432.00
2018-04-11T16:54:00.328Z,9816.00
2018-04-11T16:55:00.335Z,9016.00
2018-04-11T16:57:50.942Z,7404.00
2018-04-11T16:58:33.549Z,7224.00
2018-04-11T16:59:33.496Z,7172.00
2018-04-11T17:00:59.928Z,7668.00
2018-04-11T17:01:32.569Z,7804.00
2018-04-11T17:02:32.573Z,7736.00
2018-04-11T17:03:32.597Z,7728.00
2018-04-11T17:04:32.589Z,7724.00
2018-04-11T17:05:40.593Z,7428.00
2018-04-11T17:06:32.602Z,6888.00
2018-04-11T17:07:32.603Z,6424.00
2018-04-11T17:08:32.601Z,6164.00
2018-04-11T17:09:32.658Z,6064.00
2018-04-11T17:11:08.478Z,6092.00
2018-04-11T17:11:32.614Z,6052.00
2018-04-11T17:12:33.130Z,5872.00
2018-04-11T17:13:32.673Z,5692.00
2018-04-11T17:14:33.548Z,5484.00
2018-04-11T17:15:42.501Z,5372.00
2018-04-11T17:16:33.332Z,5240.00
2018-04-11T17:17:34.569Z,5116.00
2018-04-11T17:18:39.909Z,5032.00
2018-04-11T17:19:32.642Z,4932.00
2018-04-11T17:20:54.590Z,4816.00
2018-04-11T17:21:34.010Z,4648.00
2018-04-11T17:22:32.713Z,4432.00
2018-04-11T17:23:32.657Z,4240.00
2018-04-11T17:24:32.657Z,4088.00
2018-04-11T17:25:32.668Z,3984.00
2018-04-11T17:31:18.980Z,2992.00
2018-04-11T17:32:10.545Z,2828.00
2018-04-11T17:33:10.780Z,2672.00
2018-04-11T17:34:18.870Z,2508.00
2018-04-11T17:35:10.110Z,2344.00
2018-04-11T17:36:32.531Z,2200.00
2018-04-11T17:37:09.995Z,2072.00
2018-04-11T17:38:09.985Z,1964.00
2018-04-11T17:39:14.132Z,1872.00
2018-04-11T17:40:11.887Z,1788.00
2018-04-11T17:43:06.210Z,1592.00
2018-04-11T17:43:42.976Z,1512.00
2018-04-11T17:44:42.977Z,1436.00
2018-04-11T17:45:42.980Z,1360.00
2018-04-11T17:46:53.752Z,1284.00
2018-04-11T17:47:42.984Z,1208.00
2018-04-11T17:48:42.991Z,1132.00
2018-04-11T17:50:43.633Z,988.00
2018-04-11T17:52:11.761Z,920.00
2018-04-11T17:52:43.150Z,852.00
2018-04-11T17:53:43.004Z,784.00
2018-04-11T17:54:43.007Z,716.00
2018-04-11T17:55:43.008Z,656.00
2018-04-11T17:58:15.271Z,520.00
2018-04-11T17:59:14.760Z,472.00
2018-04-11T18:00:16.700Z,432.00
2018-04-11T18:01:14.768Z,388.00
2018-04-11T18:02:35.824Z,352.00
2018-04-11T18:03:16.582Z,316.00
2018-04-11T18:04:14.772Z,284.00
2018-04-11T18:05:15.726Z,252.00
2018-04-11T18:06:16.522Z,224.00